^^
Saratoga-Weather Station Historical Data
Daily Summary for June 7, 2020 Units:  Both    English   Metric
Daily Weekly Monthly Yearly Custom
  High: Low: Average:
Temperature: 74.5 °F /  23.6 °C 39.4 °F /  4.1 °C 56.8 °F /  13.8 °C
Dew Point: 48 °F /  8.9 °C 35.1 °F /  1.7 °C 39.9 °F /  4.4 °C
Humidity: 87% 28% 57%
Wind Speed: 6mph /  9.7km/h - 0.7mph /  1.2km/h
Wind Gust: 10mph /  16.1km/h - -
Wind- - SE
Pressure: 30.2 in /  1024.0 hPa 30.1 in /  1018.6 hPa -
Precipitation: 0 in /  0.0 mm    
Historical Graphs
 
 
Tabular Data for June 7, 2020
Time Temperature Dew Point Pressure Wind Wind Speed Wind Gust Humidity Rainfall Rate (Hourly) solar
00:02 46.2 °F /  7.9 °C 36.7 °F /  2.6 °C 30.2in /  1023.4hPa Calm     69% 0in /  0.0mm 0 W/m2
00:07 46.2 °F /  7.9 °C 36.7 °F /  2.6 °C 30.2in /  1023.7hPa Calm     69% 0in /  0.0mm 0 W/m2
00:12 46.2 °F /  7.9 °C 36.7 °F /  2.6 °C 30.2in /  1023.4hPa Calm     69% 0in /  0.0mm 0 W/m2
00:17 46.2 °F /  7.9 °C 36.7 °F /  2.6 °C 30.2in /  1023.7hPa Calm     69% 0in /  0.0mm 0 W/m2
00:22 46 °F /  7.8 °C 36.9 °F /  2.7 °C 30.2in /  1023.7hPa Calm     70% 0in /  0.0mm 0 W/m2
00:27 45.9 °F /  7.7 °C 36.7 °F /  2.6 °C 30.2in /  1023.7hPa Calm     70% 0in /  0.0mm 0 W/m2
00:32 45.9 °F /  7.7 °C 36.7 °F /  2.6 °C 30.2in /  1023.7hPa Calm     70% 0in /  0.0mm 0 W/m2
00:37 45.7 °F /  7.6 °C 36.9 °F /  2.7 °C 30.2in /  1023.7hPa Calm     71% 0in /  0.0mm 0 W/m2
00:42 45.5 °F /  7.5 °C 36.7 °F /  2.6 °C 30.2in /  1023.7hPa Calm     71% 0in /  0.0mm 0 W/m2
00:47 45.1 °F /  7.3 °C 36.3 °F /  2.4 °C 30.2in /  1023.7hPa Calm     71% 0in /  0.0mm 0 W/m2
00:52 45.1 °F /  7.3 °C 36.7 °F /  2.6 °C 30.2in /  1023.7hPa Calm     72% 0in /  0.0mm 0 W/m2
00:57 45.1 °F /  7.3 °C 36.7 °F /  2.6 °C 30.2in /  1023.7hPa Calm   1mph /  1.6km/h 72% 0in /  0.0mm 0 W/m2
01:02 45 °F /  7.2 °C 36.9 °F /  2.7 °C 30.2in /  1023.7hPa Calm     73% 0in /  0.0mm 0 W/m2
01:08 45 °F /  7.2 °C 36.9 °F /  2.7 °C 30.2in /  1023.7hPa Calm     73% 0in /  0.0mm 0 W/m2
01:13 44.8 °F /  7.1 °C 36.7 °F /  2.6 °C 30.2in /  1023.7hPa Calm   1mph /  1.6km/h 73% 0in /  0.0mm 0 W/m2
01:18 44.6 °F /  7 °C 36.5 °F /  2.5 °C 30.2in /  1023.7hPa Calm     73% 0in /  0.0mm 0 W/m2
01:23 44.4 °F /  6.9 °C 36.3 °F /  2.4 °C 30.2in /  1023.7hPa Calm     73% 0in /  0.0mm 0 W/m2
01:28 44.2 °F /  6.8 °C 36.1 °F /  2.3 °C 30.2in /  1023.7hPa Calm     73% 0in /  0.0mm 0 W/m2
01:33 44.2 °F /  6.8 °C 36.5 °F /  2.5 °C 30.2in /  1023.7hPa Calm     74% 0in /  0.0mm 0 W/m2
01:38 44.1 °F /  6.7 °C 36.3 °F /  2.4 °C 30.2in /  1023.7hPa Calm     74% 0in /  0.0mm 0 W/m2
01:43 44.1 °F /  6.7 °C 36.3 °F /  2.4 °C 30.2in /  1023.7hPa Calm     74% 0in /  0.0mm 0 W/m2
01:48 43.9 °F /  6.6 °C 36.1 °F /  2.3 °C 30.2in /  1023.7hPa Calm     74% 0in /  0.0mm 0 W/m2
01:53 43.9 °F /  6.6 °C 36.1 °F /  2.3 °C 30.2in /  1023.7hPa Calm     74% 0in /  0.0mm 0 W/m2
01:58 43.5 °F /  6.4 °C 35.8 °F /  2.1 °C 30.2in /  1023.7hPa Calm     74% 0in /  0.0mm 0 W/m2
02:03 43.3 °F /  6.3 °C 36 °F /  2.2 °C 30.2in /  1023.7hPa Calm     75% 0in /  0.0mm 0 W/m2
02:08 43.2 °F /  6.2 °C 35.8 °F /  2.1 °C 30.2in /  1023.7hPa Calm     75% 0in /  0.0mm 0 W/m2
02:13 43.2 °F /  6.2 °C 35.8 °F /  2.1 °C 30.2in /  1023.7hPa Calm     75% 0in /  0.0mm 0 W/m2
02:18 42.8 °F /  6 °C 35.8 °F /  2.1 °C 30.2in /  1023.7hPa Calm     76% 0in /  0.0mm 0 W/m2
02:23 42.6 °F /  5.9 °C 36 °F /  2.2 °C 30.2in /  1023.7hPa Calm     77% 0in /  0.0mm 0 W/m2
02:28 42.4 °F /  5.8 °C 35.8 °F /  2.1 °C 30.2in /  1023.7hPa Calm     77% 0in /  0.0mm 0 W/m2
02:33 42.4 °F /  5.8 °C 35.8 °F /  2.1 °C 30.2in /  1023.7hPa Calm     77% 0in /  0.0mm 0 W/m2
02:38 42.3 °F /  5.7 °C 36 °F /  2.2 °C 30.2in /  1023.7hPa Calm     78% 0in /  0.0mm 0 W/m2
02:43 42.1 °F /  5.6 °C 35.8 °F /  2.1 °C 30.2in /  1023.7hPa Calm     78% 0in /  0.0mm 0 W/m2
02:48 41.9 °F /  5.5 °C 35.8 °F /  2.1 °C 30.2in /  1023.7hPa Calm     79% 0in /  0.0mm 0 W/m2
02:53 41.9 °F /  5.5 °C 35.8 °F /  2.1 °C 30.2in /  1023.7hPa Calm     79% 0in /  0.0mm 0 W/m2
02:58 41.7 °F /  5.4 °C 35.8 °F /  2.1 °C 30.2in /  1023.7hPa Calm     79% 0in /  0.0mm 0 W/m2
03:04 41.5 °F /  5.3 °C 35.6 °F /  2 °C 30.2in /  1023.7hPa Calm     79% 0in /  0.0mm 0 W/m2
03:09 41.5 °F /  5.3 °C 35.6 °F /  2 °C 30.2in /  1024.0hPa Calm     79% 0in /  0.0mm 0 W/m2
03:14 41.5 °F /  5.3 °C 35.6 °F /  2 °C 30.2in /  1024.0hPa Calm     79% 0in /  0.0mm 0 W/m2
03:19 41.4 °F /  5.2 °C 35.4 °F /  1.9 °C 30.2in /  1024.0hPa Calm     79% 0in /  0.0mm 0 W/m2
03:24 41.4 °F /  5.2 °C 35.4 °F /  1.9 °C 30.2in /  1024.0hPa Calm     79% 0in /  0.0mm 0 W/m2
03:29 41.4 °F /  5.2 °C 35.6 °F /  2 °C 30.2in /  1024.0hPa SSE 0.9mph /  1.4km/h 1mph /  1.6km/h 80% 0in /  0.0mm 0 W/m2
03:34 41.4 °F /  5.2 °C 36 °F /  2.2 °C 30.2in /  1024.0hPa SSE 0.9mph /  1.4km/h 2mph /  3.2km/h 81% 0in /  0.0mm 0 W/m2
03:39 41.5 °F /  5.3 °C 36.1 °F /  2.3 °C 30.2in /  1024.0hPa Calm   2mph /  3.2km/h 81% 0in /  0.0mm 0 W/m2
03:44 41.7 °F /  5.4 °C 36.3 °F /  2.4 °C 30.2in /  1024.0hPa Calm     81% 0in /  0.0mm 0 W/m2
03:49 41.7 °F /  5.4 °C 36 °F /  2.2 °C 30.2in /  1024.0hPa Calm   2mph /  3.2km/h 80% 0in /  0.0mm 0 W/m2
03:54 41.9 °F /  5.5 °C 36.1 °F /  2.3 °C 30.2in /  1024.0hPa Calm     80% 0in /  0.0mm 0 W/m2
04:00 42.1 °F /  5.6 °C 36.3 °F /  2.4 °C 30.2in /  1024.0hPa North 0.9mph /  1.4km/h 1mph /  1.6km/h 80% 0in /  0.0mm 0 W/m2
04:05 42.1 °F /  5.6 °C 36.3 °F /  2.4 °C 30.2in /  1024.0hPa Calm     80% 0in /  0.0mm 0 W/m2
04:10 42.1 °F /  5.6 °C 36.3 °F /  2.4 °C 30.2in /  1024.0hPa Calm     80% 0in /  0.0mm 0 W/m2
04:15 41.9 °F /  5.5 °C 36.1 °F /  2.3 °C 30.2in /  1024.0hPa WSW 2mph /  3.2km/h 2mph /  3.2km/h 80% 0in /  0.0mm 0 W/m2
04:20 41.7 °F /  5.4 °C 36 °F /  2.2 °C 30.2in /  1023.7hPa Calm     80% 0in /  0.0mm 0 W/m2
04:25 41.7 °F /  5.4 °C 36.3 °F /  2.4 °C 30.2in /  1023.7hPa WNW 0.9mph /  1.4km/h 1mph /  1.6km/h 81% 0in /  0.0mm 0 W/m2
04:30 41.7 °F /  5.4 °C 36.3 °F /  2.4 °C 30.2in /  1023.7hPa Calm   2mph /  3.2km/h 81% 0in /  0.0mm 0 W/m2
04:35 41.7 °F /  5.4 °C 36 °F /  2.2 °C 30.2in /  1023.7hPa Calm     80% 0in /  0.0mm 0 W/m2
04:40 41.7 °F /  5.4 °C 36 °F /  2.2 °C 30.2in /  1023.7hPa Calm   1mph /  1.6km/h 80% 0in /  0.0mm 0 W/m2
04:45 41.5 °F /  5.3 °C 36.1 °F /  2.3 °C 30.2in /  1023.7hPa Calm     81% 0in /  0.0mm 0 W/m2
04:50 41.5 °F /  5.3 °C 36.1 °F /  2.3 °C 30.2in /  1023.7hPa Calm   1mph /  1.6km/h 81% 0in /  0.0mm 0 W/m2
04:55 41.4 °F /  5.2 °C 36 °F /  2.2 °C 30.2in /  1023.7hPa Calm     81% 0in /  0.0mm 0 W/m2
05:00 41.2 °F /  5.1 °C 35.8 °F /  2.1 °C 30.2in /  1023.4hPa Calm     81% 0in /  0.0mm 0 W/m2
05:05 41 °F /  5 °C 35.6 °F /  2 °C 30.2in /  1023.4hPa Calm     81% 0in /  0.0mm 0 W/m2
05:10 40.8 °F /  4.9 °C 35.4 °F /  1.9 °C 30.2in /  1023.7hPa Calm     81% 0in /  0.0mm 0 W/m2
05:15 40.6 °F /  4.8 °C 35.6 °F /  2 °C 30.2in /  1023.4hPa Calm     82% 0in /  0.0mm 0 W/m2
05:20 40.5 °F /  4.7 °C 35.4 °F /  1.9 °C 30.2in /  1023.4hPa Calm     82% 0in /  0.0mm 0 W/m2
05:25 40.5 °F /  4.7 °C 35.4 °F /  1.9 °C 30.2in /  1023.4hPa Calm     82% 0in /  0.0mm 0 W/m2
05:30 40.5 °F /  4.7 °C 35.8 °F /  2.1 °C 30.2in /  1023.4hPa Calm     83% 0in /  0.0mm 0 W/m2
05:35 40.3 °F /  4.6 °C 35.6 °F /  2 °C 30.2in /  1023.4hPa Calm     83% 0in /  0.0mm 0 W/m2
05:40 40.3 °F /  4.6 °C 35.6 °F /  2 °C 30.2in /  1023.4hPa Calm     83% 0in /  0.0mm 0 W/m2
05:45 40.3 °F /  4.6 °C 35.6 °F /  2 °C 30.2in /  1023.4hPa Calm     83% 0in /  0.0mm 0 W/m2
05:50 40.3 °F /  4.6 °C 35.8 °F /  2.1 °C 30.2in /  1023.4hPa Calm     84% 0in /  0.0mm 0 W/m2
05:55 39.9 °F /  4.4 °C 35.4 °F /  1.9 °C 30.2in /  1023.4hPa Calm     84% 0in /  0.0mm 0 W/m2
06:00 39.9 °F /  4.4 °C 35.4 °F /  1.9 °C 30.2in /  1023.4hPa Calm     84% 0in /  0.0mm 0 W/m2
06:05 39.7 °F /  4.3 °C 35.2 °F /  1.8 °C 30.2in /  1023.4hPa Calm     84% 0in /  0.0mm 5 W/m2
06:10 39.6 °F /  4.2 °C 35.1 °F /  1.7 °C 30.2in /  1023.4hPa Calm     84% 0in /  0.0mm 7 W/m2
06:15 39.6 °F /  4.2 °C 35.4 °F /  1.9 °C 30.2in /  1023.4hPa Calm     85% 0in /  0.0mm 9 W/m2
06:20 39.6 °F /  4.2 °C 35.4 °F /  1.9 °C 30.2in /  1023.4hPa Calm     85% 0in /  0.0mm 11 W/m2
06:25 39.4 °F /  4.1 °C 35.2 °F /  1.8 °C 30.2in /  1023.4hPa Calm     85% 0in /  0.0mm 12 W/m2
06:30 39.4 °F /  4.1 °C 35.2 °F /  1.8 °C 30.2in /  1023.4hPa Calm     85% 0in /  0.0mm 14 W/m2
06:35 39.4 °F /  4.1 °C 35.6 °F /  2 °C 30.2in /  1023.4hPa Calm     86% 0in /  0.0mm 16 W/m2
06:40 39.6 °F /  4.2 °C 35.8 °F /  2.1 °C 30.2in /  1023.4hPa Calm     86% 0in /  0.0mm 18 W/m2
06:45 39.6 °F /  4.2 °C 36 °F /  2.2 °C 30.2in /  1023.4hPa Calm     87% 0in /  0.0mm 19 W/m2
06:50 39.7 °F /  4.3 °C 36.1 °F /  2.3 °C 30.2in /  1023.4hPa Calm     87% 0in /  0.0mm 21 W/m2
06:55 39.9 °F /  4.4 °C 36.3 °F /  2.4 °C 30.2in /  1023.4hPa Calm     87% 0in /  0.0mm 23 W/m2
07:00 40.3 °F /  4.6 °C 36.7 °F /  2.6 °C 30.2in /  1023.4hPa Calm     87% 0in /  0.0mm 23 W/m2
07:05 40.5 °F /  4.7 °C 36.7 °F /  2.6 °C 30.2in /  1023.4hPa Calm     86% 0in /  0.0mm 25 W/m2
07:10 40.8 °F /  4.9 °C 37 °F /  2.8 °C 30.2in /  1023.4hPa Calm     86% 0in /  0.0mm 26 W/m2
07:15 41.2 °F /  5.1 °C 37.4 °F /  3 °C 30.2in /  1023.4hPa Calm   1mph /  1.6km/h 86% 0in /  0.0mm 26 W/m2
07:20 41.5 °F /  5.3 °C 37.6 °F /  3.1 °C 30.2in /  1023.4hPa Calm     86% 0in /  0.0mm 28 W/m2
07:25 42.3 °F /  5.7 °C 38.1 °F /  3.4 °C 30.2in /  1023.4hPa Calm   1mph /  1.6km/h 85% 0in /  0.0mm 28 W/m2
07:30 42.4 °F /  5.8 °C 38.3 °F /  3.5 °C 30.2in /  1023.4hPa Calm     85% 0in /  0.0mm 30 W/m2
07:35 43 °F /  6.1 °C 38.5 °F /  3.6 °C 30.2in /  1023.4hPa WNW 2mph /  3.2km/h 2mph /  3.2km/h 84% 0in /  0.0mm 30 W/m2
07:40 43.3 °F /  6.3 °C 38.5 °F /  3.6 °C 30.2in /  1023.4hPa Calm     83% 0in /  0.0mm 32 W/m2
07:45 43.7 °F /  6.5 °C 38.3 °F /  3.5 °C 30.2in /  1023.7hPa Calm     81% 0in /  0.0mm 54 W/m2
07:50 44.4 °F /  6.9 °C 37.6 °F /  3.1 °C 30.2in /  1023.7hPa WNW 0.9mph /  1.4km/h 1mph /  1.6km/h 77% 0in /  0.0mm 37 W/m2
07:55 45.1 °F /  7.3 °C 37.9 °F /  3.3 °C 30.2in /  1023.7hPa Calm     76% 0in /  0.0mm 232 W/m2
08:00 45.7 °F /  7.6 °C 37.9 °F /  3.3 °C 30.2in /  1023.7hPa Calm     74% 0in /  0.0mm 253 W/m2
08:05 46.8 °F /  8.2 °C 38.3 °F /  3.5 °C 30.2in /  1023.7hPa Calm   1mph /  1.6km/h 72% 0in /  0.0mm 160 W/m2
08:10 47.8 °F /  8.8 °C 38.8 °F /  3.8 °C 30.2in /  1023.7hPa Calm   1mph /  1.6km/h 71% 0in /  0.0mm 283 W/m2
08:15 48.7 °F /  9.3 °C 39.4 °F /  4.1 °C 30.2in /  1023.7hPa Calm   1mph /  1.6km/h 70% 0in /  0.0mm 292 W/m2
08:20 49.8 °F /  9.9 °C 39.7 °F /  4.3 °C 30.2in /  1023.7hPa Calm     68% 0in /  0.0mm 308 W/m2
08:25 50.5 °F /  10.3 °C 39.6 °F /  4.2 °C 30.2in /  1023.7hPa NNW 2mph /  3.2km/h 2mph /  3.2km/h 66% 0in /  0.0mm 320 W/m2
08:30 50.9 °F /  10.5 °C 39.6 °F /  4.2 °C 30.2in /  1023.7hPa Calm     65% 0in /  0.0mm 336 W/m2
08:35 51.1 °F /  10.6 °C 39.7 °F /  4.3 °C 30.2in /  1023.7hPa Calm   3mph /  4.8km/h 65% 0in /  0.0mm 348 W/m2
08:40 51.3 °F /  10.7 °C 39.6 °F /  4.2 °C 30.2in /  1023.7hPa Calm   2mph /  3.2km/h 64% 0in /  0.0mm 364 W/m2
08:45 51.6 °F /  10.9 °C 39.4 °F /  4.1 °C 30.2in /  1023.7hPa NNE 2mph /  3.2km/h 3mph /  4.8km/h 63% 0in /  0.0mm 376 W/m2
08:50 52 °F /  11.1 °C 40.1 °F /  4.5 °C 30.2in /  1023.7hPa Calm     64% 0in /  0.0mm 390 W/m2
08:55 52.5 °F /  11.4 °C 40.3 °F /  4.6 °C 30.2in /  1023.7hPa ENE 0.9mph /  1.4km/h 3mph /  4.8km/h 63% 0in /  0.0mm 404 W/m2
09:00 53.1 °F /  11.7 °C 40.5 °F /  4.7 °C 30.2in /  1023.7hPa NE 0.9mph /  1.4km/h 2mph /  3.2km/h 62% 0in /  0.0mm 417 W/m2
09:05 53.4 °F /  11.9 °C 40.3 °F /  4.6 °C 30.2in /  1023.7hPa NE 0.9mph /  1.4km/h 1mph /  1.6km/h 61% 0in /  0.0mm 432 W/m2
09:10 53.8 °F /  12.1 °C 41 °F /  5 °C 30.2in /  1023.7hPa East 0.9mph /  1.4km/h 1mph /  1.6km/h 62% 0in /  0.0mm 446 W/m2
09:15 54 °F /  12.2 °C 40.8 °F /  4.9 °C 30.2in /  1023.4hPa Calm   2mph /  3.2km/h 61% 0in /  0.0mm 457 W/m2
09:20 54.5 °F /  12.5 °C 40.8 °F /  4.9 °C 30.2in /  1023.4hPa NNE 0.9mph /  1.4km/h 3mph /  4.8km/h 60% 0in /  0.0mm 469 W/m2
09:25 54.9 °F /  12.7 °C 40.8 °F /  4.9 °C 30.2in /  1023.4hPa Calm   2mph /  3.2km/h 59% 0in /  0.0mm 482 W/m2
09:30 55.6 °F /  13.1 °C 40.1 °F /  4.5 °C 30.2in /  1023.4hPa Calm   3mph /  4.8km/h 56% 0in /  0.0mm 490 W/m2
09:35 56.1 °F /  13.4 °C 39.7 °F /  4.3 °C 30.2in /  1023.4hPa NE 0.9mph /  1.4km/h 2mph /  3.2km/h 54% 0in /  0.0mm 508 W/m2
09:40 56.8 °F /  13.8 °C 39.9 °F /  4.4 °C 30.2in /  1023.4hPa NNE 2mph /  3.2km/h 2mph /  3.2km/h 53% 0in /  0.0mm 520 W/m2
09:45 57.2 °F /  14 °C 40.3 °F /  4.6 °C 30.2in /  1023.4hPa Calm   2mph /  3.2km/h 53% 0in /  0.0mm 534 W/m2
09:50 57.4 °F /  14.1 °C 39.4 °F /  4.1 °C 30.2in /  1023.4hPa ENE 2mph /  3.2km/h 3mph /  4.8km/h 51% 0in /  0.0mm 545 W/m2
09:55 57.6 °F /  14.2 °C 39.6 °F /  4.2 °C 30.2in /  1023.4hPa ESE 0.9mph /  1.4km/h 2mph /  3.2km/h 51% 0in /  0.0mm 557 W/m2
10:00 57.9 °F /  14.4 °C 39.9 °F /  4.4 °C 30.2in /  1023.4hPa East 2.9mph /  4.7km/h 3mph /  4.8km/h 51% 0in /  0.0mm 568 W/m2
10:05 58.5 °F /  14.7 °C 39.9 °F /  4.4 °C 30.2in /  1023.4hPa NE 2mph /  3.2km/h 2mph /  3.2km/h 50% 0in /  0.0mm 563 W/m2
10:11 58.6 °F /  14.8 °C 40.6 °F /  4.8 °C 30.2in /  1023.4hPa ESE 2.9mph /  4.7km/h 4mph /  6.4km/h 51% 0in /  0.0mm 113 W/m2
10:16 58.8 °F /  14.9 °C 39.7 °F /  4.3 °C 30.2in /  1023.4hPa North 0.9mph /  1.4km/h 2mph /  3.2km/h 49% 0in /  0.0mm 601 W/m2
10:21 59.2 °F /  15.1 °C 41.5 °F /  5.3 °C 30.2in /  1023.4hPa East 2mph /  3.2km/h 6mph /  9.7km/h 52% 0in /  0.0mm 612 W/m2
10:26 59.5 °F /  15.3 °C 40.3 °F /  4.6 °C 30.2in /  1023.4hPa ENE 0.9mph /  1.4km/h 3mph /  4.8km/h 49% 0in /  0.0mm 624 W/m2
10:31 59.5 °F /  15.3 °C 40.8 °F /  4.9 °C 30.2in /  1023.4hPa WSW 0.9mph /  1.4km/h 3mph /  4.8km/h 50% 0in /  0.0mm 633 W/m2
10:36 60.1 °F /  15.6 °C 40.8 °F /  4.9 °C 30.2in /  1023.4hPa East 0.9mph /  1.4km/h 4mph /  6.4km/h 49% 0in /  0.0mm 645 W/m2
10:41 60.6 °F /  15.9 °C 41.4 °F /  5.2 °C 30.2in /  1023.4hPa ESE 0.9mph /  1.4km/h 4mph /  6.4km/h 49% 0in /  0.0mm 654 W/m2
10:46 61.3 °F /  16.3 °C 42.1 °F /  5.6 °C 30.2in /  1023.4hPa ESE 2mph /  3.2km/h 4mph /  6.4km/h 49% 0in /  0.0mm 666 W/m2
10:51 61.9 °F /  16.6 °C 42.4 °F /  5.8 °C 30.2in /  1023.4hPa East 2mph /  3.2km/h 2mph /  3.2km/h 49% 0in /  0.0mm 677 W/m2
10:56 62.2 °F /  16.8 °C 41.7 °F /  5.4 °C 30.2in /  1023.4hPa ENE 0.9mph /  1.4km/h 3mph /  4.8km/h 47% 0in /  0.0mm 684 W/m2
11:01 61.9 °F /  16.6 °C 40.8 °F /  4.9 °C 30.2in /  1023.4hPa NE 4mph /  6.4km/h 4mph /  6.4km/h 46% 0in /  0.0mm 691 W/m2
11:06 61.9 °F /  16.6 °C 41.4 °F /  5.2 °C 30.2in /  1023.4hPa NNE 2mph /  3.2km/h 4mph /  6.4km/h 47% 0in /  0.0mm 703 W/m2
11:11 62.2 °F /  16.8 °C 42.3 °F /  5.7 °C 30.2in /  1023.0hPa SE 2.9mph /  4.7km/h 3mph /  4.8km/h 48% 0in /  0.0mm 708 W/m2
11:16 63 °F /  17.2 °C 41.9 °F /  5.5 °C 30.2in /  1023.0hPa East 0.9mph /  1.4km/h 2mph /  3.2km/h 46% 0in /  0.0mm 719 W/m2
11:21 63.3 °F /  17.4 °C 41.5 °F /  5.3 °C 30.2in /  1023.0hPa NNE 0.9mph /  1.4km/h 8mph /  12.9km/h 45% 0in /  0.0mm 726 W/m2
11:26 63.5 °F /  17.5 °C 41.7 °F /  5.4 °C 30.2in /  1023.0hPa ESE 0.9mph /  1.4km/h 3mph /  4.8km/h 45% 0in /  0.0mm 733 W/m2
11:31 63.7 °F /  17.6 °C 41.9 °F /  5.5 °C 30.2in /  1023.0hPa East 4mph /  6.4km/h 8mph /  12.9km/h 45% 0in /  0.0mm 740 W/m2
11:36 63.7 °F /  17.6 °C 41.9 °F /  5.5 °C 30.2in /  1023.0hPa ESE 4mph /  6.4km/h 4mph /  6.4km/h 45% 0in /  0.0mm 747 W/m2
11:41 64.2 °F /  17.9 °C 42.4 °F /  5.8 °C 30.2in /  1023.0hPa ESE 2mph /  3.2km/h 5mph /  8km/h 45% 0in /  0.0mm 754 W/m2
11:46 64.2 °F /  17.9 °C 42.4 °F /  5.8 °C 30.2in /  1023.0hPa ENE 0.9mph /  1.4km/h 4mph /  6.4km/h 45% 0in /  0.0mm 761 W/m2
11:51 64 °F /  17.8 °C 42.8 °F /  6 °C 30.2in /  1023.0hPa SE 2mph /  3.2km/h 4mph /  6.4km/h 46% 0in /  0.0mm 766 W/m2
11:56 64 °F /  17.8 °C 42.3 °F /  5.7 °C 30.2in /  1023.0hPa Calm   4mph /  6.4km/h 45% 0in /  0.0mm 772 W/m2
12:01 63.9 °F /  17.7 °C 43.7 °F /  6.5 °C 30.2in /  1023.0hPa ENE 2.9mph /  4.7km/h 4mph /  6.4km/h 48% 0in /  0.0mm 775 W/m2
12:06 64 °F /  17.8 °C 43.3 °F /  6.3 °C 30.2in /  1023.0hPa North 2mph /  3.2km/h 7mph /  11.3km/h 47% 0in /  0.0mm 780 W/m2
12:11 64.6 °F /  18.1 °C 42.8 °F /  6 °C 30.2in /  1023.0hPa Calm   4mph /  6.4km/h 45% 0in /  0.0mm 789 W/m2
12:16 64.8 °F /  18.2 °C 42.3 °F /  5.7 °C 30.2in /  1023.0hPa NNW 0.9mph /  1.4km/h 1mph /  1.6km/h 44% 0in /  0.0mm 789 W/m2
12:21 64.9 °F /  18.3 °C 43.2 °F /  6.2 °C 30.2in /  1022.7hPa NE 0.9mph /  1.4km/h 2mph /  3.2km/h 45% 0in /  0.0mm 802 W/m2
12:26 65.8 °F /  18.8 °C 40.1 °F /  4.5 °C 30.2in /  1022.7hPa NE 0.9mph /  1.4km/h 5mph /  8km/h 39% 0in /  0.0mm 807 W/m2
12:31 66.2 °F /  19 °C 42.4 °F /  5.8 °C 30.2in /  1022.7hPa East 4mph /  6.4km/h 5mph /  8km/h 42% 0in /  0.0mm 810 W/m2
12:36 66.4 °F /  19.1 °C 42.6 °F /  5.9 °C 30.2in /  1022.7hPa NNE 0.9mph /  1.4km/h 3mph /  4.8km/h 42% 0in /  0.0mm 812 W/m2
12:41 66.6 °F /  19.2 °C 40.1 °F /  4.5 °C 30.2in /  1022.7hPa SE 0.9mph /  1.4km/h 4mph /  6.4km/h 38% 0in /  0.0mm 816 W/m2
12:47 66.7 °F /  19.3 °C 40.3 °F /  4.6 °C 30.2in /  1022.7hPa Calm   7mph /  11.3km/h 38% 0in /  0.0mm 824 W/m2
12:52 67.1 °F /  19.5 °C 40.6 °F /  4.8 °C 30.2in /  1022.7hPa East 2.9mph /  4.7km/h 4mph /  6.4km/h 38% 0in /  0.0mm 828 W/m2
12:57 67.3 °F /  19.6 °C 41.5 °F /  5.3 °C 30.2in /  1022.7hPa ESE 2.9mph /  4.7km/h 8mph /  12.9km/h 39% 0in /  0.0mm 817 W/m2
13:02 66.9 °F /  19.4 °C 41.2 °F /  5.1 °C 30.2in /  1022.4hPa South 0.9mph /  1.4km/h 2mph /  3.2km/h 39% 0in /  0.0mm 814 W/m2
13:07 67.3 °F /  19.6 °C 39.4 °F /  4.1 °C 30.2in /  1022.4hPa North 2mph /  3.2km/h 7mph /  11.3km/h 36% 0in /  0.0mm 814 W/m2
13:12 67.5 °F /  19.7 °C 39.6 °F /  4.2 °C 30.2in /  1022.4hPa SSE 2.9mph /  4.7km/h 4mph /  6.4km/h 36% 0in /  0.0mm 816 W/m2
13:17 67.6 °F /  19.8 °C 42.4 °F /  5.8 °C 30.2in /  1022.4hPa ENE 4mph /  6.4km/h 4mph /  6.4km/h 40% 0in /  0.0mm 817 W/m2
13:22 67.8 °F /  19.9 °C 41.9 °F /  5.5 °C 30.2in /  1022.4hPa WSW 2mph /  3.2km/h 3mph /  4.8km/h 39% 0in /  0.0mm 821 W/m2
13:27 68 °F /  20 °C 42.1 °F /  5.6 °C 30.2in /  1022.4hPa NNE 0.9mph /  1.4km/h 3mph /  4.8km/h 39% 0in /  0.0mm 816 W/m2
13:32 68.5 °F /  20.3 °C 41.9 °F /  5.5 °C 30.2in /  1022.4hPa North 2.9mph /  4.7km/h 10mph /  16.1km/h 38% 0in /  0.0mm 807 W/m2
13:37 68.5 °F /  20.3 °C 39.7 °F /  4.3 °C 30.2in /  1022.0hPa ENE 2.9mph /  4.7km/h 9mph /  14.5km/h 35% 0in /  0.0mm 830 W/m2
13:42 68.7 °F /  20.4 °C 39.9 °F /  4.4 °C 30.2in /  1022.0hPa NNE 2mph /  3.2km/h 10mph /  16.1km/h 35% 0in /  0.0mm 835 W/m2
13:47 68.7 °F /  20.4 °C 39.2 °F /  4 °C 30.2in /  1022.0hPa ESE 2mph /  3.2km/h 3mph /  4.8km/h 34% 0in /  0.0mm 831 W/m2
13:52 68.7 °F /  20.4 °C 42.1 °F /  5.6 °C 30.2in /  1022.0hPa East 2.9mph /  4.7km/h 5mph /  8km/h 38% 0in /  0.0mm 828 W/m2
13:57 68.9 °F /  20.5 °C 39.4 °F /  4.1 °C 30.2in /  1022.0hPa NNW 2mph /  3.2km/h 3mph /  4.8km/h 34% 0in /  0.0mm 800 W/m2
14:02 68.4 °F /  20.2 °C 38.8 °F /  3.8 °C 30.2in /  1022.0hPa ESE 0.9mph /  1.4km/h 3mph /  4.8km/h 34% 0in /  0.0mm 816 W/m2
14:07 68.4 °F /  20.2 °C 40.3 °F /  4.6 °C 30.2in /  1022.0hPa NNE 0.9mph /  1.4km/h 4mph /  6.4km/h 36% 0in /  0.0mm 817 W/m2
14:12 68.5 °F /  20.3 °C 39.7 °F /  4.3 °C 30.2in /  1022.0hPa ENE 4.9mph /  7.9km/h 9mph /  14.5km/h 35% 0in /  0.0mm 807 W/m2
14:17 69.1 °F /  20.6 °C 41 °F /  5 °C 30.2in /  1022.0hPa ESE 2mph /  3.2km/h 3mph /  4.8km/h 36% 0in /  0.0mm 821 W/m2
14:22 69.6 °F /  20.9 °C 38.5 °F /  3.6 °C 30.2in /  1022.0hPa SE 2mph /  3.2km/h 7mph /  11.3km/h 32% 0in /  0.0mm 779 W/m2
14:27 69.6 °F /  20.9 °C 37.6 °F /  3.1 °C 30.2in /  1021.7hPa West 2.9mph /  4.7km/h 4mph /  6.4km/h 31% 0in /  0.0mm 800 W/m2
14:32 69.3 °F /  20.7 °C 38.1 °F /  3.4 °C 30.2in /  1021.7hPa Calm   3mph /  4.8km/h 32% 0in /  0.0mm 809 W/m2
14:37 69.4 °F /  20.8 °C 41.4 °F /  5.2 °C 30.2in /  1021.7hPa ENE 2mph /  3.2km/h 2mph /  3.2km/h 36% 0in /  0.0mm 796 W/m2
14:42 70.2 °F /  21.2 °C 38.8 °F /  3.8 °C 30.2in /  1021.3hPa NNW 2mph /  3.2km/h 4mph /  6.4km/h 32% 0in /  0.0mm 795 W/m2
14:48 70.3 °F /  21.3 °C 38.3 °F /  3.5 °C 30.2in /  1021.3hPa NE 2.9mph /  4.7km/h 4mph /  6.4km/h 31% 0in /  0.0mm 789 W/m2
14:53 70.3 °F /  21.3 °C 37.4 °F /  3 °C 30.2in /  1021.3hPa SSE 2mph /  3.2km/h 4mph /  6.4km/h 30% 0in /  0.0mm 777 W/m2
14:58 70.2 °F /  21.2 °C 38.8 °F /  3.8 °C 30.2in /  1021.3hPa ENE 0.9mph /  1.4km/h 6mph /  9.7km/h 32% 0in /  0.0mm 786 W/m2
15:03 70.5 °F /  21.4 °C 38.5 °F /  3.6 °C 30.2in /  1021.3hPa NNE 4mph /  6.4km/h 6mph /  9.7km/h 31% 0in /  0.0mm 772 W/m2
15:08 70.7 °F /  21.5 °C 38.7 °F /  3.7 °C 30.2in /  1021.3hPa ESE 4mph /  6.4km/h 9mph /  14.5km/h 31% 0in /  0.0mm 779 W/m2
15:13 70.3 °F /  21.3 °C 37.4 °F /  3 °C 30.2in /  1021.3hPa ENE 4mph /  6.4km/h 5mph /  8km/h 30% 0in /  0.0mm 747 W/m2
15:18 70.3 °F /  21.3 °C 37.4 °F /  3 °C 30.2in /  1021.0hPa ENE 6mph /  9.7km/h 6mph /  9.7km/h 30% 0in /  0.0mm 719 W/m2
15:23 70.5 °F /  21.4 °C 38.5 °F /  3.6 °C 30.2in /  1021.0hPa SW 2mph /  3.2km/h 4mph /  6.4km/h 31% 0in /  0.0mm 687 W/m2
15:28 70.9 °F /  21.6 °C 40.3 °F /  4.6 °C 30.2in /  1021.0hPa ENE 0.9mph /  1.4km/h 4mph /  6.4km/h 33% 0in /  0.0mm 754 W/m2
15:33 71.2 °F /  21.8 °C 39 °F /  3.9 °C 30.2in /  1021.0hPa NNE 0.9mph /  1.4km/h 4mph /  6.4km/h 31% 0in /  0.0mm 715 W/m2
15:38 71.4 °F /  21.9 °C 40.1 °F /  4.5 °C 30.1in /  1020.7hPa ENE 2.9mph /  4.7km/h 5mph /  8km/h 32% 0in /  0.0mm 694 W/m2
15:43 71.2 °F /  21.8 °C 39.9 °F /  4.4 °C 30.1in /  1020.7hPa SE 2.9mph /  4.7km/h 5mph /  8km/h 32% 0in /  0.0mm 691 W/m2
15:48 71.2 °F /  21.8 °C 39.9 °F /  4.4 °C 30.1in /  1020.7hPa WNW 0.9mph /  1.4km/h 9mph /  14.5km/h 32% 0in /  0.0mm 675 W/m2
15:53 71.6 °F /  22 °C 39.4 °F /  4.1 °C 30.1in /  1020.7hPa ENE 4mph /  6.4km/h 4mph /  6.4km/h 31% 0in /  0.0mm 677 W/m2
15:58 72 °F /  22.2 °C 39.7 °F /  4.3 °C 30.1in /  1020.7hPa SE 0.9mph /  1.4km/h 3mph /  4.8km/h 31% 0in /  0.0mm 701 W/m2
16:03 72.1 °F /  22.3 °C 39.9 °F /  4.4 °C 30.1in /  1020.7hPa East 0.9mph /  1.4km/h 4mph /  6.4km/h 31% 0in /  0.0mm 679 W/m2
16:08 72.3 °F /  22.4 °C 38.3 °F /  3.5 °C 30.1in /  1020.7hPa ESE 0.9mph /  1.4km/h 3mph /  4.8km/h 29% 0in /  0.0mm 645 W/m2
16:13 72.3 °F /  22.4 °C 41.5 °F /  5.3 °C 30.1in /  1020.3hPa SW 0.9mph /  1.4km/h 3mph /  4.8km/h 33% 0in /  0.0mm 587 W/m2
16:18 72.7 °F /  22.6 °C 40.3 °F /  4.6 °C 30.1in /  1020.3hPa Calm   1mph /  1.6km/h 31% 0in /  0.0mm 608 W/m2
16:23 72.3 °F /  22.4 °C 39.2 °F /  4 °C 30.1in /  1020.0hPa SSE 0.9mph /  1.4km/h 4mph /  6.4km/h 30% 0in /  0.0mm 643 W/m2
16:28 72.7 °F /  22.6 °C 41.2 °F /  5.1 °C 30.1in /  1020.0hPa NE 2.9mph /  4.7km/h 6mph /  9.7km/h 32% 0in /  0.0mm 605 W/m2
16:33 73 °F /  22.8 °C 40.6 °F /  4.8 °C 30.1in /  1020.0hPa South 0.9mph /  1.4km/h 4mph /  6.4km/h 31% 0in /  0.0mm 612 W/m2
16:38 72.9 °F /  22.7 °C 38.7 °F /  3.7 °C 30.1in /  1020.0hPa ENE 4mph /  6.4km/h 5mph /  8km/h 29% 0in /  0.0mm 601 W/m2
16:43 72.9 °F /  22.7 °C 40.5 °F /  4.7 °C 30.1in /  1020.0hPa SE 0.9mph /  1.4km/h 6mph /  9.7km/h 31% 0in /  0.0mm 596 W/m2
16:48 73 °F /  22.8 °C 39.7 °F /  4.3 °C 30.1in /  1020.0hPa Calm   1mph /  1.6km/h 30% 0in /  0.0mm 599 W/m2
16:53 73.2 °F /  22.9 °C 39.9 °F /  4.4 °C 30.1in /  1019.6hPa SE 0.9mph /  1.4km/h 3mph /  4.8km/h 30% 0in /  0.0mm 584 W/m2
16:58 73.4 °F /  23 °C 39.2 °F /  4 °C 30.1in /  1019.6hPa NNE 0.9mph /  1.4km/h 5mph /  8km/h 29% 0in /  0.0mm 555 W/m2
17:03 73.2 °F /  22.9 °C 39 °F /  3.9 °C 30.1in /  1019.6hPa ESE 0.9mph /  1.4km/h 7mph /  11.3km/h 29% 0in /  0.0mm 568 W/m2
17:08 72.9 °F /  22.7 °C 38.7 °F /  3.7 °C 30.1in /  1019.6hPa NNW 2mph /  3.2km/h 3mph /  4.8km/h 29% 0in /  0.0mm 555 W/m2
17:13 72.9 °F /  22.7 °C 40.5 °F /  4.7 °C 30.1in /  1019.6hPa South 0.9mph /  1.4km/h 2mph /  3.2km/h 31% 0in /  0.0mm 533 W/m2
17:18 72.9 °F /  22.7 °C 39.6 °F /  4.2 °C 30.1in /  1019.6hPa ESE 2.9mph /  4.7km/h 4mph /  6.4km/h 30% 0in /  0.0mm 489 W/m2
17:23 73 °F /  22.8 °C 38.8 °F /  3.8 °C 30.1in /  1019.6hPa WNW 2mph /  3.2km/h 2mph /  3.2km/h 29% 0in /  0.0mm 526 W/m2
17:28 73.2 °F /  22.9 °C 41.5 °F /  5.3 °C 30.1in /  1019.6hPa Calm   2mph /  3.2km/h 32% 0in /  0.0mm 497 W/m2
17:33 73.6 °F /  23.1 °C 38.5 °F /  3.6 °C 30.1in /  1019.3hPa SE 2mph /  3.2km/h 5mph /  8km/h 28% 0in /  0.0mm 490 W/m2
17:38 73.6 °F /  23.1 °C 41.9 °F /  5.5 °C 30.1in /  1019.3hPa Calm   7mph /  11.3km/h 32% 0in /  0.0mm 473 W/m2
17:43 73.6 °F /  23.1 °C 41.9 °F /  5.5 °C 30.1in /  1019.3hPa SW 0.9mph /  1.4km/h 2mph /  3.2km/h 32% 0in /  0.0mm 462 W/m2
17:48 73.9 °F /  23.3 °C 40.5 °F /  4.7 °C 30.1in /  1019.3hPa East 2mph /  3.2km/h 2mph /  3.2km/h 30% 0in /  0.0mm 431 W/m2
17:53 74.1 °F /  23.4 °C 39.9 °F /  4.4 °C 30.1in /  1019.3hPa East 0.9mph /  1.4km/h 2mph /  3.2km/h 29% 0in /  0.0mm 434 W/m2
17:58 74.5 °F /  23.6 °C 41.9 °F /  5.5 °C 30.1in /  1019.3hPa Calm     31% 0in /  0.0mm 424 W/m2
18:04 74.5 °F /  23.6 °C 41 °F /  5 °C 30.1in /  1019.3hPa ENE 2.9mph /  4.7km/h 3mph /  4.8km/h 30% 0in /  0.0mm 408 W/m2
18:09 73.9 °F /  23.3 °C 40.5 °F /  4.7 °C 30.1in /  1019.3hPa NE 2.9mph /  4.7km/h 3mph /  4.8km/h 30% 0in /  0.0mm 181 W/m2
18:14 73 °F /  22.8 °C 39.7 °F /  4.3 °C 30.1in /  1019.3hPa NNW 0.9mph /  1.4km/h 4mph /  6.4km/h 30% 0in /  0.0mm 156 W/m2
18:19 72.5 °F /  22.5 °C 41.7 °F /  5.4 °C 30.1in /  1019.3hPa ESE 2.9mph /  4.7km/h 3mph /  4.8km/h 33% 0in /  0.0mm 197 W/m2
18:24 72.3 °F /  22.4 °C 42.4 °F /  5.8 °C 30.1in /  1019.0hPa Calm   1mph /  1.6km/h 34% 0in /  0.0mm 299 W/m2
18:29 72.7 °F /  22.6 °C 42.6 °F /  5.9 °C 30.1in /  1019.0hPa Calm   2mph /  3.2km/h 34% 0in /  0.0mm 285 W/m2
18:34 72.9 °F /  22.7 °C 44.4 °F /  6.9 °C 30.1in /  1019.0hPa Calm     36% 0in /  0.0mm 220 W/m2
18:39 72.9 °F /  22.7 °C 41.4 °F /  5.2 °C 30.1in /  1019.0hPa Calm   1mph /  1.6km/h 32% 0in /  0.0mm 134 W/m2
18:44 72.9 °F /  22.7 °C 45.7 °F /  7.6 °C 30.1in /  1019.0hPa WNW 0.9mph /  1.4km/h 1mph /  1.6km/h 38% 0in /  0.0mm 100 W/m2
18:49 72 °F /  22.2 °C 45.7 °F /  7.6 °C 30.1in /  1019.0hPa South 0.9mph /  1.4km/h 1mph /  1.6km/h 39% 0in /  0.0mm 97 W/m2
18:54 71.1 °F /  21.7 °C 48 °F /  8.9 °C 30.1in /  1019.0hPa South 0.9mph /  1.4km/h 2mph /  3.2km/h 44% 0in /  0.0mm 100 W/m2
18:59 70.2 °F /  21.2 °C 47.8 °F /  8.8 °C 30.1in /  1019.0hPa Calm   1mph /  1.6km/h 45% 0in /  0.0mm 105 W/m2
19:04 69.4 °F /  20.8 °C 46.6 °F /  8.1 °C 30.1in /  1019.0hPa South 0.9mph /  1.4km/h 2mph /  3.2km/h 44% 0in /  0.0mm 109 W/m2
19:09 68.7 °F /  20.4 °C 45.3 °F /  7.4 °C 30.1in /  1019.0hPa Calm   2mph /  3.2km/h 43% 0in /  0.0mm 113 W/m2
19:14 68.5 °F /  20.3 °C 43.3 °F /  6.3 °C 30.1in /  1019.0hPa Calm   1mph /  1.6km/h 40% 0in /  0.0mm 109 W/m2
19:19 68.4 °F /  20.2 °C 45 °F /  7.2 °C 30.1in /  1019.0hPa Calm   2mph /  3.2km/h 43% 0in /  0.0mm 100 W/m2
19:24 68.4 °F /  20.2 °C 42.4 °F /  5.8 °C 30.1in /  1019.0hPa NW 0.9mph /  1.4km/h 1mph /  1.6km/h 39% 0in /  0.0mm 97 W/m2
19:29 68.2 °F /  20.1 °C 45.5 °F /  7.5 °C 30.1in /  1019.0hPa WNW 2mph /  3.2km/h 2mph /  3.2km/h 44% 0in /  0.0mm 90 W/m2
19:34 68 °F /  20 °C 46.4 °F /  8 °C 30.1in /  1019.0hPa WNW 0.9mph /  1.4km/h 2mph /  3.2km/h 46% 0in /  0.0mm 76 W/m2
19:39 67.6 °F /  19.8 °C 46.8 °F /  8.2 °C 30.1in /  1018.6hPa Calm     47% 0in /  0.0mm 74 W/m2
19:44 67.5 °F /  19.7 °C 47.7 °F /  8.7 °C 30.1in /  1019.0hPa Calm   1mph /  1.6km/h 49% 0in /  0.0mm 77 W/m2
19:49 66.9 °F /  19.4 °C 46 °F /  7.8 °C 30.1in /  1019.0hPa West 0.9mph /  1.4km/h 2mph /  3.2km/h 47% 0in /  0.0mm 81 W/m2
19:54 66.6 °F /  19.2 °C 46.2 °F /  7.9 °C 30.1in /  1019.0hPa West 0.9mph /  1.4km/h 2mph /  3.2km/h 48% 0in /  0.0mm 76 W/m2
19:59 66.4 °F /  19.1 °C 46 °F /  7.8 °C 30.1in /  1019.0hPa West 2mph /  3.2km/h 2mph /  3.2km/h 48% 0in /  0.0mm 76 W/m2
20:04 66 °F /  18.9 °C 46.4 °F /  8 °C 30.1in /  1019.0hPa Calm   1mph /  1.6km/h 49% 0in /  0.0mm 69 W/m2
20:09 65.8 °F /  18.8 °C 46.2 °F /  7.9 °C 30.1in /  1018.6hPa SW 0.9mph /  1.4km/h 2mph /  3.2km/h 49% 0in /  0.0mm 54 W/m2
20:14 65.5 °F /  18.6 °C 45.3 °F /  7.4 °C 30.1in /  1018.6hPa Calm     48% 0in /  0.0mm 47 W/m2
20:19 65.1 °F /  18.4 °C 46.6 °F /  8.1 °C 30.1in /  1018.6hPa Calm     51% 0in /  0.0mm 40 W/m2
20:24 64.9 °F /  18.3 °C 45.9 °F /  7.7 °C 30.1in /  1018.6hPa SW 0.9mph /  1.4km/h 1mph /  1.6km/h 50% 0in /  0.0mm 35 W/m2
20:29 64.2 °F /  17.9 °C 45.7 °F /  7.6 °C 30.1in /  1018.6hPa SW 0.9mph /  1.4km/h 1mph /  1.6km/h 51% 0in /  0.0mm 30 W/m2
20:35 63.9 °F /  17.7 °C 45.3 °F /  7.4 °C 30.1in /  1018.6hPa SW 0.9mph /  1.4km/h 2mph /  3.2km/h 51% 0in /  0.0mm 25 W/m2
20:40 63.3 °F /  17.4 °C 45.3 °F /  7.4 °C 30.1in /  1018.6hPa SW 0.9mph /  1.4km/h 1mph /  1.6km/h 52% 0in /  0.0mm 19 W/m2
20:45 63 °F /  17.2 °C 45.1 °F /  7.3 °C 30.1in /  1018.6hPa Calm   1mph /  1.6km/h 52% 0in /  0.0mm 16 W/m2
20:50 62.8 °F /  17.1 °C 45.3 °F /  7.4 °C 30.1in /  1018.6hPa Calm     53% 0in /  0.0mm 9 W/m2
20:55 62.2 °F /  16.8 °C 45 °F /  7.2 °C 30.1in /  1019.0hPa Calm     53% 0in /  0.0mm 5 W/m2
21:00 61.9 °F /  16.6 °C 44.6 °F /  7 °C 30.1in /  1019.0hPa Calm     53% 0in /  0.0mm 0 W/m2
21:05 61.5 °F /  16.4 °C 44.8 °F /  7.1 °C 30.1in /  1019.0hPa Calm     54% 0in /  0.0mm 0 W/m2
21:10 61.2 °F /  16.2 °C 44.8 °F /  7.1 °C 30.1in /  1019.0hPa Calm     55% 0in /  0.0mm 0 W/m2
21:15 60.6 °F /  15.9 °C 44.4 °F /  6.9 °C 30.1in /  1019.0hPa Calm     55% 0in /  0.0mm 0 W/m2
21:20 60.4 °F /  15.8 °C 44.2 °F /  6.8 °C 30.1in /  1019.0hPa Calm     55% 0in /  0.0mm 0 W/m2
21:25 60.1 °F /  15.6 °C 44.4 °F /  6.9 °C 30.1in /  1019.0hPa Calm     56% 0in /  0.0mm 0 W/m2
21:30 59.5 °F /  15.3 °C 43.9 °F /  6.6 °C 30.1in /  1019.0hPa Calm     56% 0in /  0.0mm 0 W/m2
21:35 59.2 °F /  15.1 °C 43.5 °F /  6.4 °C 30.1in /  1019.0hPa Calm     56% 0in /  0.0mm 0 W/m2
21:40 58.8 °F /  14.9 °C 43.2 °F /  6.2 °C 30.1in /  1019.0hPa Calm     56% 0in /  0.0mm 0 W/m2
21:45 58.5 °F /  14.7 °C 43.7 °F /  6.5 °C 30.1in /  1019.0hPa Calm     58% 0in /  0.0mm 0 W/m2
21:50 58.3 °F /  14.6 °C 43.2 °F /  6.2 °C 30.1in /  1019.0hPa Calm     57% 0in /  0.0mm 0 W/m2
21:55 57.9 °F /  14.4 °C 43.7 °F /  6.5 °C 30.1in /  1019.0hPa Calm     59% 0in /  0.0mm 0 W/m2
22:00 57.7 °F /  14.3 °C 43.5 °F /  6.4 °C 30.1in /  1019.0hPa Calm     59% 0in /  0.0mm 0 W/m2
22:05 57.6 °F /  14.2 °C 42.4 °F /  5.8 °C 30.1in /  1019.0hPa Calm     57% 0in /  0.0mm 0 W/m2
22:10 57.4 °F /  14.1 °C 43.2 °F /  6.2 °C 30.1in /  1019.0hPa Calm     59% 0in /  0.0mm 0 W/m2
22:15 57 °F /  13.9 °C 43.3 °F /  6.3 °C 30.1in /  1019.0hPa Calm     60% 0in /  0.0mm 0 W/m2
22:20 56.8 °F /  13.8 °C 43.2 °F /  6.2 °C 30.1in /  1019.0hPa Calm     60% 0in /  0.0mm 0 W/m2
22:25 56.7 °F /  13.7 °C 42.1 °F /  5.6 °C 30.1in /  1019.0hPa Calm     58% 0in /  0.0mm 0 W/m2
22:30 56.7 °F /  13.7 °C 43 °F /  6.1 °C 30.1in /  1019.0hPa Calm     60% 0in /  0.0mm 0 W/m2
22:35 56.5 °F /  13.6 °C 42.8 °F /  6 °C 30.1in /  1019.0hPa Calm     60% 0in /  0.0mm 0 W/m2
22:40 56.5 °F /  13.6 °C 42.8 °F /  6 °C 30.1in /  1019.0hPa Calm     60% 0in /  0.0mm 0 W/m2
22:45 56.3 °F /  13.5 °C 43 °F /  6.1 °C 30.1in /  1019.0hPa Calm     61% 0in /  0.0mm 0 W/m2
22:50 56.1 °F /  13.4 °C 42.8 °F /  6 °C 30.1in /  1019.0hPa Calm     61% 0in /  0.0mm 0 W/m2
22:55 55.8 °F /  13.2 °C 43 °F /  6.1 °C 30.1in /  1019.0hPa Calm     62% 0in /  0.0mm 0 W/m2
23:00 55.6 °F /  13.1 °C 43.2 °F /  6.2 °C 30.1in /  1019.0hPa Calm     63% 0in /  0.0mm 0 W/m2
23:05 55.2 °F /  12.9 °C 43.3 °F /  6.3 °C 30.1in /  1019.0hPa Calm     64% 0in /  0.0mm 0 W/m2
23:10 55 °F /  12.8 °C 43.2 °F /  6.2 °C 30.1in /  1019.0hPa Calm     64% 0in /  0.0mm 0 W/m2
23:15 54.9 °F /  12.7 °C 43 °F /  6.1 °C 30.1in /  1019.0hPa Calm     64% 0in /  0.0mm 0 W/m2
23:20 54.7 °F /  12.6 °C 42.8 °F /  6 °C 30.1in /  1019.0hPa Calm     64% 0in /  0.0mm 0 W/m2
23:25 54.1 °F /  12.3 °C 42.3 °F /  5.7 °C 30.1in /  1019.0hPa Calm     64% 0in /  0.0mm 0 W/m2
23:31 54 °F /  12.2 °C 42.1 °F /  5.6 °C 30.1in /  1018.6hPa Calm     64% 0in /  0.0mm 0 W/m2
23:36 53.8 °F /  12.1 °C 41.9 °F /  5.5 °C 30.1in /  1018.6hPa Calm     64% 0in /  0.0mm 0 W/m2
23:41 53.4 °F /  11.9 °C 41.9 °F /  5.5 °C 30.1in /  1018.6hPa Calm     65% 0in /  0.0mm 0 W/m2
23:46 53.1 °F /  11.7 °C 41.5 °F /  5.3 °C 30.1in /  1018.6hPa Calm     65% 0in /  0.0mm 0 W/m2
23:51 52.9 °F /  11.6 °C 41.9 °F /  5.5 °C 30.1in /  1018.6hPa Calm     66% 0in /  0.0mm 0 W/m2
23:56 52.7 °F /  11.5 °C 42.1 °F /  5.6 °C 30.1in /  1018.6hPa Calm     67% 0in /  0.0mm 0 W/m2
Juneau County Weather
Compliments of Weather Underground - 4 mb